Time;durP1;ratioP1;P1;durP2;ratioP2;P2;SDS_P1;SDS_P2;PMS_P1;PMS_P2;Temp;Humidity;BMP_temperature;BMP_pressure;BME280_temperature;BME280_humidity;BME280_pressure;Samples;Min_cycle;Max_cycle;Signal;HPM_P1;HPM_P2
2022/09/14 00:02:24;;;;;;;63.90;51.80;;;24.50;63.20;;;;;;4966425;28;91905;-62
2022/09/14 00:04:50;;;;;;;65.05;51.50;;;24.50;63.30;;;;;;4960160;28;90850;-62
2022/09/14 00:07:16;;;;;;;62.85;51.35;;;24.50;63.10;;;;;;4972862;28;90693;-62
2022/09/14 00:09:42;;;;;;;62.67;51.28;;;24.50;63.30;;;;;;4963191;28;90736;-63
2022/09/14 00:12:09;;;;;;;63.05;51.63;;;24.50;63.20;;;;;;4962786;28;92297;-63
2022/09/14 00:14:35;;;;;;;62.90;51.40;;;24.50;63.20;;;;;;4962257;28;93957;-62
2022/09/14 00:17:01;;;;;;;63.03;51.08;;;24.50;63.10;;;;;;4963136;28;90826;-63
2022/09/14 00:19:27;;;;;;;62.17;51.05;;;24.50;63.10;;;;;;4971830;28;91970;-62
2022/09/14 00:21:55;;;;;;;62.28;51.33;;;24.50;63.20;;;;;;4969651;28;98565;-63
2022/09/14 00:24:22;;;;;;;62.30;51.08;;;24.50;63.20;;;;;;4960859;28;91391;-64
2022/09/14 00:26:49;;;;;;;63.40;51.08;;;24.50;63.10;;;;;;4964714;28;91337;-62
2022/09/14 00:29:15;;;;;;;62.97;51.40;;;24.50;63.00;;;;;;4969294;28;90095;-62
2022/09/14 00:31:41;;;;;;;61.83;51.15;;;24.50;63.10;;;;;;4961898;28;89290;-62
2022/09/14 00:34:11;;;;;;;62.67;51.35;;;24.50;63.00;;;;;;4959819;28;91952;-63
2022/09/14 00:36:40;;;;;;;61.83;51.03;;;24.50;62.90;;;;;;4971928;28;97337;-62
2022/09/14 00:39:06;;;;;;;63.15;51.25;;;24.50;62.90;;;;;;4972765;28;91994;-63
2022/09/14 00:41:34;;;;;;;63.33;51.25;;;24.50;63.00;;;;;;4972506;28;93702;-62
2022/09/14 00:44:25;;;;;;;63.40;51.53;;;24.40;63.00;;;;;;4967008;28;91224;-64
2022/09/14 00:46:54;;;;;;;63.30;51.10;;;24.50;62.90;;;;;;4968020;28;91472;-62
2022/09/14 00:49:38;;;;;;;62.15;50.72;;;24.40;62.90;;;;;;4970685;28;95412;-62
2022/09/14 00:52:15;;;;;;;61.45;50.83;;;24.40;62.90;;;;;;4972884;28;94021;-64
2022/09/14 00:54:44;;;;;;;61.38;51.05;;;24.50;63.00;;;;;;4969270;28;91503;-64
2022/09/14 00:57:10;;;;;;;61.17;50.88;;;24.40;62.90;;;;;;4972434;28;90919;-62
2022/09/14 00:59:38;;;;;;;62.53;50.95;;;24.40;62.90;;;;;;4967425;28;90174;-63
2022/09/14 01:02:05;;;;;;;63.45;51.17;;;24.40;62.80;;;;;;4968326;28;91375;-63
2022/09/14 01:04:31;;;;;;;62.83;51.25;;;24.40;62.80;;;;;;4975027;28;92068;-63
2022/09/14 01:07:25;;;;;;;62.67;50.92;;;24.50;62.80;;;;;;4962295;28;93846;-63
2022/09/14 01:10:01;;;;;;;62.90;51.25;;;24.40;62.70;;;;;;4962675;28;90537;-64
2022/09/14 01:13:03;;;;;;;61.65;50.95;;;24.40;62.70;;;;;;4961655;28;90803;-62
2022/09/14 01:15:44;;;;;;;61.38;50.65;;;24.40;62.80;;;;;;4969327;28;91128;-62
2022/09/14 01:18:13;;;;;;;63.20;51.00;;;24.40;62.90;;;;;;4962994;28;93355;-63
2022/09/14 01:20:59;;;;;;;63.13;51.00;;;24.40;62.80;;;;;;4969201;28;90277;-62
2022/09/14 01:24:07;;;;;;;64.13;51.25;;;24.40;62.80;;;;;;4962916;28;94253;-62
2022/09/14 01:27:00;;;;;;;63.50;50.80;;;24.40;62.90;;;;;;4961376;28;91769;-63
2022/09/14 01:29:48;;;;;;;62.10;50.83;;;24.40;62.80;;;;;;4968019;28;89936;-63
2022/09/14 01:32:24;;;;;;;62.25;51.15;;;24.40;62.70;;;;;;4964588;28;91497;-64
2022/09/14 01:34:55;;;;;;;60.88;50.63;;;24.40;62.60;;;;;;4965412;28;90905;-62
2022/09/14 01:37:40;;;;;;;61.55;50.85;;;24.40;62.70;;;;;;4970002;28;90993;-62
2022/09/14 01:40:13;;;;;;;61.58;50.72;;;24.40;62.60;;;;;;4972820;28;90478;-61
2022/09/14 01:42:42;;;;;;;61.90;50.72;;;24.40;62.60;;;;;;4970533;28;90298;-62
2022/09/14 01:45:12;;;;;;;61.17;50.40;;;24.40;62.50;;;;;;4963603;28;89891;-62
2022/09/14 01:47:44;;;;;;;61.35;50.78;;;24.40;62.60;;;;;;4962994;28;92746;-62
2022/09/14 01:50:17;;;;;;;62.03;50.55;;;24.40;62.60;;;;;;4964254;28;90203;-62
2022/09/14 01:52:52;;;;;;;62.40;50.85;;;24.40;62.60;;;;;;4976362;28;89839;-61
2022/09/14 01:55:26;;;;;;;62.72;50.83;;;24.40;62.50;;;;;;4967129;28;90094;-62
2022/09/14 01:58:11;;;;;;;61.20;50.78;;;24.30;62.50;;;;;;4963207;28;91571;-62
2022/09/14 02:00:42;;;;;;;62.35;50.83;;;24.40;62.50;;;;;;4969841;28;91952;-62
2022/09/14 02:03:41;;;;;;;62.33;51.15;;;24.30;62.50;;;;;;4965493;28;89893;-62
2022/09/14 02:06:28;;;;;;;62.40;50.97;;;24.30;62.50;;;;;;4963107;28;90779;-63
2022/09/14 02:08:54;;;;;;;61.90;50.92;;;24.40;62.50;;;;;;4965605;28;91357;-64
2022/09/14 02:11:20;;;;;;;62.42;50.88;;;24.30;62.60;;;;;;4964730;28;93567;-62
2022/09/14 02:13:46;;;;;;;62.20;50.80;;;24.30;62.50;;;;;;4971812;28;90469;-62
2022/09/14 02:16:12;;;;;;;61.83;50.58;;;24.30;62.60;;;;;;4972532;28;90361;-63
2022/09/14 02:18:39;;;;;;;61.58;50.60;;;24.30;62.50;;;;;;4964216;28;91355;-63
2022/09/14 02:21:13;;;;;;;62.10;50.83;;;24.30;62.50;;;;;;4971998;28;90540;-62
2022/09/14 02:23:38;;;;;;;61.67;50.85;;;24.30;62.50;;;;;;4970835;28;90786;-63
2022/09/14 02:26:05;;;;;;;62.13;50.83;;;24.30;62.50;;;;;;4958156;28;89747;-63
2022/09/14 02:28:30;;;;;;;61.35;50.95;;;24.30;62.60;;;;;;4964983;28;91576;-63
2022/09/14 02:31:14;;;;;;;60.92;50.85;;;24.20;62.50;;;;;;4964398;28;92969;-62
2022/09/14 02:34:09;;;;;;;61.38;50.80;;;24.30;62.60;;;;;;4967383;28;90563;-62
2022/09/14 02:36:47;;;;;;;61.88;50.70;;;24.30;62.50;;;;;;4966463;28;90399;-63
2022/09/14 02:39:30;;;;;;;61.63;50.85;;;24.30;62.50;;;;;;4970255;28;91335;-63
2022/09/14 02:42:18;;;;;;;61.08;50.63;;;24.30;62.60;;;;;;4968922;28;90084;-64
2022/09/14 02:44:57;;;;;;;62.33;50.53;;;24.20;62.50;;;;;;4975937;28;90422;-63
2022/09/14 02:47:42;;;;;;;60.67;50.58;;;24.20;62.50;;;;;;4980172;28;90300;-63
2022/09/14 02:50:30;;;;;;;63.08;50.92;;;24.30;62.50;;;;;;4969151;28;92107;-63
2022/09/14 02:53:08;;;;;;;63.00;50.63;;;24.20;62.40;;;;;;4972265;28;93409;-62
2022/09/14 02:55:42;;;;;;;62.58;50.65;;;24.20;62.40;;;;;;4974070;28;89960;-62
2022/09/14 02:58:12;;;;;;;61.78;50.60;;;24.20;62.50;;;;;;4971179;28;89969;-63
2022/09/14 03:00:44;;;;;;;61.05;50.80;;;24.20;62.50;;;;;;4961835;28;93318;-63
2022/09/14 03:03:11;;;;;;;62.38;50.95;;;24.20;62.60;;;;;;4965143;28;92531;-62
2022/09/14 03:05:37;;;;;;;62.00;50.58;;;24.20;62.70;;;;;;4967986;28;90045;-63
2022/09/14 03:08:03;;;;;;;61.08;50.63;;;24.20;62.70;;;;;;4966457;28;93527;-63
2022/09/14 03:10:30;;;;;;;62.33;50.78;;;24.20;62.70;;;;;;4959362;28;90762;-64
2022/09/14 03:12:56;;;;;;;61.33;50.65;;;24.20;62.70;;;;;;4974293;28;91083;-63
2022/09/14 03:15:22;;;;;;;61.25;50.35;;;24.20;62.70;;;;;;4971670;28;93899;-62
2022/09/14 03:17:49;;;;;;;61.22;50.42;;;24.10;62.70;;;;;;4964040;28;89860;-63
2022/09/14 03:20:21;;;;;;;61.78;50.65;;;24.20;62.70;;;;;;4966562;28;92349;-63
2022/09/14 03:22:46;;;;;;;;;;;24.20;62.70;;;;;;4970359;28;90904;-65
2022/09/14 03:25:13;;;;;;;60.42;50.28;;;24.10;62.60;;;;;;4971872;28;98939;-63
2022/09/14 03:27:39;;;;;;;61.25;50.45;;;24.20;62.70;;;;;;4969008;28;90890;-63
2022/09/14 03:30:06;;;;;;;61.45;50.45;;;24.10;62.70;;;;;;4965209;28;91225;-63
2022/09/14 03:32:32;;;;;;;62.20;50.38;;;24.10;62.70;;;;;;4967339;28;91997;-64
2022/09/14 03:34:58;;;;;;;60.80;50.55;;;24.10;62.70;;;;;;4959090;28;91005;-63
2022/09/14 03:37:25;;;;;;;61.92;50.28;;;24.10;62.80;;;;;;4962073;28;90197;-63
2022/09/14 03:39:51;;;;;;;61.10;50.55;;;24.10;62.80;;;;;;4965599;28;90931;-63
2022/09/14 03:42:16;;;;;;;60.65;50.25;;;24.10;62.90;;;;;;4968268;28;91843;-63
2022/09/14 03:44:42;;;;;;;60.80;50.25;;;24.10;62.80;;;;;;4966483;28;90622;-62
2022/09/14 03:47:08;;;;;;;61.88;50.55;;;24.10;62.80;;;;;;4963137;28;92050;-62
2022/09/14 03:49:33;;;;;;;60.97;50.65;;;24.10;62.80;;;;;;4965583;28;91191;-63
2022/09/14 03:51:59;;;;;;;61.80;50.65;;;24.10;62.70;;;;;;4968924;28;91265;-62
2022/09/14 03:54:25;;;;;;;60.80;50.58;;;24.10;62.80;;;;;;4964738;28;89922;-62
2022/09/14 03:56:52;;;;;;;61.13;50.53;;;24.10;62.80;;;;;;4970289;28;89528;-63
2022/09/14 03:59:18;;;;;;;61.63;50.42;;;24.10;62.70;;;;;;4962722;28;91648;-63
2022/09/14 04:01:45;;;;;;;62.28;50.47;;;24.10;62.70;;;;;;4963345;28;94061;-63
2022/09/14 04:04:10;;;;;;;61.17;50.42;;;24.10;62.60;;;;;;4953102;28;91553;-63
2022/09/14 04:06:36;;;;;;;60.30;50.25;;;24.10;62.60;;;;;;4962486;28;90484;-63
2022/09/14 04:09:02;;;;;;;60.63;50.15;;;24.10;62.60;;;;;;4971203;28;91024;-62
2022/09/14 04:11:30;;;;;;;61.35;50.08;;;24.10;62.70;;;;;;4969556;28;90670;-62
2022/09/14 04:14:00;;;;;;;60.40;50.17;;;24.10;62.60;;;;;;4968229;28;89985;-62
2022/09/14 04:16:27;;;;;;;60.83;50.45;;;24.10;62.80;;;;;;4954785;28;90379;-62
2022/09/14 04:18:53;;;;;;;60.13;50.22;;;24.10;62.70;;;;;;4967255;28;91327;-62
2022/09/14 04:21:21;;;;;;;61.13;50.35;;;24.10;62.60;;;;;;4964996;28;90074;-62
2022/09/14 04:23:47;;;;;;;60.45;50.53;;;24.10;62.60;;;;;;4969123;28;90197;-63
2022/09/14 04:26:16;;;;;;;61.90;50.63;;;24.10;62.70;;;;;;4965288;28;93948;-63
2022/09/14 04:28:41;;;;;;;62.17;50.47;;;24.00;62.80;;;;;;4972948;28;91947;-64
2022/09/14 04:31:09;;;;;;;64.32;50.70;;;24.10;62.90;;;;;;4971084;28;96897;-63
2022/09/14 04:33:35;;;;;;;62.00;51.03;;;24.00;63.00;;;;;;4965710;28;90116;-62
2022/09/14 04:36:10;;;;;;;61.33;50.65;;;24.00;63.00;;;;;;4971779;28;90151;-63
2022/09/14 04:38:37;;;;;;;62.20;50.75;;;24.00;63.10;;;;;;4972474;28;91387;-63
2022/09/14 04:41:08;;;;;;;61.63;50.35;;;24.00;63.30;;;;;;4971057;28;91628;-62
2022/09/14 04:43:34;;;;;;;62.70;50.35;;;24.00;63.20;;;;;;4970822;28;92375;-62
2022/09/14 04:46:02;;;;;;;62.17;50.60;;;24.00;63.10;;;;;;4972284;28;91886;-63
2022/09/14 04:48:32;;;;;;;63.17;50.42;;;24.00;63.00;;;;;;4976075;28;91419;-62
2022/09/14 04:51:06;;;;;;;61.35;50.53;;;24.00;63.00;;;;;;4968889;28;91600;-63
2022/09/14 04:53:34;;;;;;;61.42;50.65;;;24.00;63.00;;;;;;4970830;28;91272;-62
2022/09/14 04:56:00;;;;;;;64.05;51.10;;;24.00;63.30;;;;;;4968326;28;89933;-64
2022/09/14 04:58:27;;;;;;;70.28;51.55;;;24.00;63.30;;;;;;4963203;28;90236;-63
2022/09/14 05:00:54;;;;;;;66.60;51.85;;;24.00;63.40;;;;;;4968024;28;91233;-63
2022/09/14 05:03:21;;;;;;;67.38;51.70;;;23.90;63.40;;;;;;4969325;28;89917;-62
2022/09/14 05:05:46;;;;;;;64.03;51.20;;;24.00;63.30;;;;;;4968041;28;90136;-63
2022/09/14 05:08:12;;;;;;;65.93;51.47;;;24.00;63.30;;;;;;4973139;28;91187;-63
2022/09/14 05:10:38;;;;;;;63.92;51.40;;;24.00;63.30;;;;;;4964496;28;90698;-63
2022/09/14 05:13:03;;;;;;;65.07;51.53;;;24.00;63.40;;;;;;4974430;28;91952;-62
2022/09/14 05:15:29;;;;;;;65.72;51.72;;;24.00;63.30;;;;;;4970102;28;90732;-65
2022/09/14 05:17:55;;;;;;;69.40;52.33;;;23.90;63.20;;;;;;4968414;28;91061;-63
2022/09/14 05:20:20;;;;;;;66.68;52.15;;;23.90;63.30;;;;;;4968003;28;91749;-63
2022/09/14 05:22:49;;;;;;;66.95;52.15;;;23.90;63.40;;;;;;4969610;28;89880;-63
2022/09/14 05:25:15;;;;;;;66.88;52.28;;;24.00;63.60;;;;;;4974291;28;90106;-63
2022/09/14 05:27:41;;;;;;;65.93;52.25;;;23.90;63.30;;;;;;4974533;28;91173;-63
2022/09/14 05:30:07;;;;;;;64.75;51.60;;;24.00;63.50;;;;;;4971179;28;92617;-64
2022/09/14 05:32:33;;;;;;;68.35;51.88;;;23.90;63.40;;;;;;4972164;28;93679;-63
2022/09/14 05:34:59;;;;;;;67.50;51.53;;;23.90;63.50;;;;;;4975085;28;89978;-64
2022/09/14 05:37:24;;;;;;;64.95;51.78;;;23.90;63.50;;;;;;4966803;28;95457;-63
2022/09/14 05:39:50;;;;;;;68.35;51.35;;;23.90;63.60;;;;;;4966788;28;91318;-65
2022/09/14 05:42:16;;;;;;;63.65;51.35;;;23.90;63.60;;;;;;4968774;28;96852;-64
2022/09/14 05:44:41;;;;;;;65.10;51.75;;;23.90;63.60;;;;;;4971854;28;96678;-65
2022/09/14 05:47:07;;;;;;;65.85;51.55;;;23.90;63.50;;;;;;4966267;28;93884;-64
2022/09/14 05:49:33;;;;;;;65.28;51.25;;;23.90;63.30;;;;;;4968281;28;90208;-65
2022/09/14 05:51:58;;;;;;;66.82;51.45;;;23.90;63.30;;;;;;4976275;28;90023;-64
2022/09/14 05:54:24;;;;;;;64.07;51.63;;;23.90;63.30;;;;;;4969934;28;91483;-65
2022/09/14 05:56:50;;;;;;;67.22;52.28;;;23.90;63.30;;;;;;4964997;28;91197;-65
2022/09/14 05:59:15;;;;;;;66.38;51.85;;;23.90;63.30;;;;;;4972799;28;91432;-65
2022/09/14 06:01:41;;;;;;;69.22;52.20;;;23.90;63.30;;;;;;4977203;28;90831;-66
2022/09/14 06:04:10;;;;;;;64.32;52.03;;;23.90;63.30;;;;;;4970093;28;90039;-65
2022/09/14 06:06:36;;;;;;;65.32;51.97;;;23.90;63.30;;;;;;4963791;28;92906;-65
2022/09/14 06:09:02;;;;;;;64.18;51.80;;;23.80;63.20;;;;;;4968350;28;92285;-65
2022/09/14 06:11:31;;;;;;;68.45;52.20;;;23.90;63.30;;;;;;4976140;28;89815;-65
2022/09/14 06:13:58;;;;;;;66.00;51.85;;;23.90;63.30;;;;;;4968924;28;91384;-65
2022/09/14 06:16:25;;;;;;;64.00;52.00;;;23.80;63.20;;;;;;4966976;28;90349;-65
2022/09/14 06:18:52;;;;;;;65.18;52.10;;;23.80;63.30;;;;;;4970880;28;90979;-65
2022/09/14 06:21:19;;;;;;;65.25;52.25;;;23.80;63.20;;;;;;4976276;28;90031;-65
2022/09/14 06:23:46;;;;;;;66.45;51.97;;;23.80;63.20;;;;;;4973439;28;88805;-65
2022/09/14 06:26:12;;;;;;;67.78;52.28;;;23.80;63.20;;;;;;4961550;28;91246;-65
2022/09/14 06:28:38;;;;;;;65.88;51.92;;;23.80;63.20;;;;;;4973433;28;90794;-66
2022/09/14 06:31:06;;;;;;;65.00;52.05;;;23.80;63.20;;;;;;4967316;28;92831;-65
2022/09/14 06:33:35;;;;;;;65.68;51.78;;;23.80;63.20;;;;;;4968476;28;89926;-66
2022/09/14 06:36:08;;;;;;;63.50;51.60;;;23.80;63.20;;;;;;4971133;28;91511;-65
2022/09/14 06:38:34;;;;;;;64.70;51.58;;;23.80;63.20;;;;;;4975841;28;90522;-65
2022/09/14 06:41:03;;;;;;;64.72;51.58;;;23.80;63.10;;;;;;4975388;28;89974;-65
2022/09/14 06:43:31;;;;;;;64.53;51.45;;;23.80;63.10;;;;;;4971294;28;90354;-64
2022/09/14 06:46:04;;;;;;;63.70;51.45;;;23.80;63.10;;;;;;4964824;28;90246;-64
2022/09/14 06:48:33;;;;;;;64.93;51.75;;;23.90;62.90;;;;;;4970800;28;90648;-65
2022/09/14 06:50:59;;;;;;;63.15;51.13;;;23.90;63.00;;;;;;4964220;28;90839;-65
2022/09/14 06:53:25;;;;;;;65.05;51.40;;;23.90;63.00;;;;;;4967093;28;90403;-65
2022/09/14 06:55:51;;;;;;;63.42;51.35;;;23.90;63.00;;;;;;4970174;28;93095;-65
2022/09/14 06:58:17;;;;;;;63.35;51.00;;;23.90;63.10;;;;;;4973699;28;91424;-65
2022/09/14 07:00:43;;;;;;;62.53;51.15;;;23.90;63.10;;;;;;4963243;28;90068;-64
2022/09/14 07:03:09;;;;;;;63.50;51.53;;;23.90;63.00;;;;;;4967700;28;90272;-65
2022/09/14 07:05:34;;;;;;;64.63;51.50;;;23.90;63.20;;;;;;4971436;28;93556;-65
2022/09/14 07:08:00;;;;;;;64.47;51.95;;;23.90;63.20;;;;;;4971218;28;90048;-64
2022/09/14 07:10:27;;;;;;;63.85;51.17;;;23.90;63.10;;;;;;4969254;28;90227;-65
2022/09/14 07:12:58;;;;;;;63.50;50.90;;;23.90;63.20;;;;;;4969021;28;91535;-62
2022/09/14 07:15:25;;;;;;;63.85;51.45;;;23.90;63.10;;;;;;4973627;28;95161;-65
2022/09/14 07:17:50;;;;;;;63.97;51.03;;;23.90;63.10;;;;;;4970536;28;90225;-64
2022/09/14 07:20:16;;;;;;;64.30;51.05;;;24.00;63.20;;;;;;4965605;28;91920;-65
2022/09/14 07:22:42;;;;;;;62.17;50.88;;;23.90;63.10;;;;;;4970317;28;89752;-65
2022/09/14 07:25:09;;;;;;;64.68;51.47;;;23.90;63.20;;;;;;4962782;28;92013;-66
2022/09/14 07:27:37;;;;;;;62.08;50.70;;;23.90;63.20;;;;;;4970262;28;93547;-65
2022/09/14 07:30:04;;;;;;;62.28;50.80;;;23.90;63.10;;;;;;4971373;28;90137;-66
2022/09/14 07:32:30;;;;;;;62.60;50.72;;;23.90;63.20;;;;;;4966228;28;92916;-65
2022/09/14 07:34:55;;;;;;;61.92;51.03;;;23.90;63.10;;;;;;4971291;28;91546;-65
2022/09/14 07:37:22;;;;;;;62.50;50.45;;;23.90;63.20;;;;;;4978652;28;89186;-64
2022/09/14 07:39:48;;;;;;;61.75;50.83;;;23.90;63.20;;;;;;4968636;28;95471;-65
2022/09/14 07:42:13;;;;;;;61.67;50.85;;;23.90;64.00;;;;;;4972688;28;89828;-65
2022/09/14 07:44:39;;;;;;;61.40;50.67;;;23.90;63.30;;;;;;4975233;28;92122;-64
2022/09/14 07:47:05;;;;;;;63.60;50.63;;;23.90;63.30;;;;;;4969684;28;91684;-65
2022/09/14 07:49:31;;;;;;;60.38;50.45;;;23.90;63.30;;;;;;4971704;28;94900;-65
2022/09/14 07:51:57;;;;;;;63.00;50.58;;;23.90;63.30;;;;;;4973728;28;90121;-65
2022/09/14 07:54:22;;;;;;;63.42;50.47;;;23.90;63.30;;;;;;4975047;28;91012;-65
2022/09/14 07:56:49;;;;;;;61.75;50.65;;;23.90;63.30;;;;;;4966408;28;91462;-64
2022/09/14 07:59:15;;;;;;;62.10;50.60;;;23.90;63.30;;;;;;4964176;28;93376;-66
2022/09/14 08:01:41;;;;;;;61.75;50.97;;;23.90;63.30;;;;;;4964623;28;89116;-64
2022/09/14 08:04:08;;;;;;;62.65;50.53;;;23.90;63.30;;;;;;4973331;28;92005;-65
2022/09/14 08:06:35;;;;;;;61.53;50.75;;;23.90;63.30;;;;;;4967224;28;89832;-65
2022/09/14 08:09:06;;;;;;;68.00;50.63;;;24.00;63.30;;;;;;4970573;28;90974;-65
2022/09/14 08:11:34;;;;;;;62.13;50.43;;;23.90;63.10;;;;;;4964521;28;90034;-66
2022/09/14 08:14:08;;;;;;;68.25;50.80;;;23.90;63.20;;;;;;4974421;28;91256;-64
2022/09/14 08:16:34;;;;;;;63.72;50.78;;;23.90;63.30;;;;;;4964518;28;92321;-65
2022/09/14 08:19:03;;;;;;;62.70;50.55;;;23.90;63.30;;;;;;4966821;28;93996;-65
2022/09/14 08:21:30;;;;;;;60.95;50.47;;;23.90;63.30;;;;;;4968082;28;90589;-65
2022/09/14 08:23:57;;;;;;;61.72;50.38;;;23.90;63.30;;;;;;4974747;28;90401;-64
2022/09/14 08:26:29;;;;;;;61.97;50.63;;;23.90;63.30;;;;;;4968546;28;94051;-65
2022/09/14 08:28:55;;;;;;;61.33;50.65;;;24.00;63.40;;;;;;4967774;28;89827;-65
2022/09/14 08:31:23;;;;;;;62.13;50.42;;;23.90;63.20;;;;;;4972925;28;90005;-64
2022/09/14 08:33:54;;;;;;;61.75;50.60;;;23.90;63.30;;;;;;4974958;28;92389;-64
2022/09/14 08:36:21;;;;;;;62.17;50.53;;;23.90;63.30;;;;;;4965804;28;92042;-65
2022/09/14 08:38:47;;;;;;;60.95;50.38;;;23.90;63.20;;;;;;4969590;28;90073;-65
2022/09/14 08:41:34;;;;;;;61.70;50.33;;;23.90;63.30;;;;;;4965042;28;91191;-64
2022/09/14 08:44:24;;;;;;;61.22;50.22;;;23.90;63.30;;;;;;4969686;28;91384;-65
2022/09/14 08:47:03;;;;;;;60.90;50.13;;;23.90;63.30;;;;;;4967203;28;91110;-64
2022/09/14 08:49:47;;;;;;;60.45;50.08;;;23.90;63.20;;;;;;4975455;28;90524;-65
2022/09/14 08:52:25;;;;;;;60.78;50.17;;;23.90;63.30;;;;;;4970484;28;90281;-63
2022/09/14 08:54:57;;;;;;;62.63;50.55;;;24.00;63.30;;;;;;4965375;28;90323;-64
2022/09/14 08:57:41;;;;;;;61.20;50.45;;;23.90;63.30;;;;;;4969367;28;90612;-66
2022/09/14 09:00:14;;;;;;;60.55;50.03;;;24.00;63.30;;;;;;4964323;28;91806;-64
2022/09/14 09:03:06;;;;;;;60.65;49.95;;;24.00;63.30;;;;;;4967944;28;90156;-64
2022/09/14 09:05:51;;;;;;;60.30;50.03;;;24.00;63.20;;;;;;4969439;28;91110;-64
2022/09/14 09:08:42;;;;;;;60.35;49.95;;;23.90;63.30;;;;;;4973899;28;94244;-64
2022/09/14 09:11:15;;;;;;;61.97;50.35;;;24.00;63.40;;;;;;4968490;28;91883;-65
2022/09/14 09:13:42;;;;;;;60.22;50.10;;;24.00;63.30;;;;;;4970728;28;93902;-64
2022/09/14 09:16:11;;;;;;;59.95;49.92;;;23.90;63.20;;;;;;4974854;28;91200;-65
2022/09/14 09:18:49;;;;;;;60.78;49.97;;;24.00;63.30;;;;;;4967133;28;91021;-64
2022/09/14 09:21:18;;;;;;;60.67;49.95;;;24.00;63.30;;;;;;4971265;28;90616;-64
2022/09/14 09:23:44;;;;;;;61.00;50.25;;;24.00;63.20;;;;;;4969385;28;89987;-65
2022/09/14 09:26:29;;;;;;;61.00;50.17;;;24.00;63.20;;;;;;4973403;28;92498;-66
2022/09/14 09:29:02;;;;;;;61.58;50.20;;;24.00;63.20;;;;;;4981345;28;92325;-65
2022/09/14 09:31:38;;;;;;;61.42;50.17;;;24.00;63.20;;;;;;4972693;28;89953;-64
2022/09/14 09:34:05;;;;;;;61.30;50.13;;;24.00;63.10;;;;;;4967040;28;90072;-64
2022/09/14 09:36:45;;;;;;;60.10;50.05;;;24.00;63.10;;;;;;4965632;28;93991;-65
2022/09/14 09:39:11;;;;;;;60.50;50.13;;;24.00;63.30;;;;;;4966455;28;90573;-65
2022/09/14 09:41:55;;;;;;;60.60;50.28;;;24.00;63.30;;;;;;4974663;28;89891;-66
2022/09/14 09:44:21;;;;;;;62.20;50.42;;;24.00;63.20;;;;;;4975056;28;90079;-65
2022/09/14 09:46:51;;;;;;;60.00;49.95;;;24.00;63.20;;;;;;4973913;28;90924;-64
2022/09/14 09:49:23;;;;;;;61.20;50.22;;;24.00;63.20;;;;;;4968175;28;95773;-64
2022/09/14 09:51:50;;;;;;;61.17;50.03;;;24.00;63.20;;;;;;4972329;28;92032;-65
2022/09/14 09:54:15;;;;;;;60.85;50.33;;;24.00;63.10;;;;;;4970416;28;91763;-66
2022/09/14 09:56:52;;;;;;;60.13;49.97;;;24.00;63.10;;;;;;4968665;28;91196;-64
2022/09/14 09:59:36;;;;;;;60.65;50.00;;;24.00;63.10;;;;;;4966066;28;93156;-65
2022/09/14 10:02:21;;;;;;;61.70;50.13;;;24.00;63.00;;;;;;4969823;28;93954;-65
2022/09/14 10:05:10;;;;;;;62.92;50.30;;;24.00;63.10;;;;;;4969003;28;90162;-64
2022/09/14 10:07:48;;;;;;;60.40;50.20;;;24.00;63.10;;;;;;4971157;28;97551;-64
2022/09/14 10:10:17;;;;;;;61.63;50.25;;;24.00;63.20;;;;;;4967888;28;89776;-64
2022/09/14 10:12:52;;;;;;;60.83;50.42;;;24.10;63.20;;;;;;4973249;28;89932;-64
2022/09/14 10:15:30;;;;;;;59.78;50.15;;;24.10;63.20;;;;;;4978089;28;90178;-64
2022/09/14 10:18:05;;;;;;;59.95;50.17;;;24.10;63.10;;;;;;4973024;28;91428;-64
2022/09/14 10:20:31;;;;;;;62.67;50.05;;;24.10;63.70;;;;;;4968398;28;92325;-64
2022/09/14 10:23:16;;;;;;;60.67;50.22;;;24.10;62.90;;;;;;4973199;28;90040;-65
2022/09/14 10:25:43;;;;;;;61.20;50.17;;;24.10;62.80;;;;;;4974111;28;90342;-65
2022/09/14 10:28:25;;;;;;;62.28;50.30;;;24.00;62.90;;;;;;4966198;28;89938;-65
2022/09/14 10:31:19;;;;;;;60.75;50.15;;;24.10;62.90;;;;;;4968702;28;91608;-65
2022/09/14 10:33:47;;;;;;;62.00;50.60;;;24.00;63.70;;;;;;4970097;28;90504;-65
2022/09/14 10:36:28;;;;;;;61.03;50.38;;;24.00;63.20;;;;;;4970886;28;89754;-65
2022/09/14 10:39:00;;;;;;;60.33;50.42;;;23.90;63.30;;;;;;4969235;28;90490;-65
2022/09/14 10:41:42;;;;;;;60.78;50.63;;;24.00;63.40;;;;;;4972780;28;91919;-66
2022/09/14 10:44:44;;;;;;;61.15;50.70;;;23.90;63.60;;;;;;4975843;28;91340;-65
2022/09/14 10:47:24;;;;;;;61.55;50.70;;;23.90;63.60;;;;;;4972879;28;89984;-65
2022/09/14 10:49:53;;;;;;;63.27;50.77;;;23.90;63.60;;;;;;4965738;28;91761;-65
2022/09/14 10:52:18;;;;;;;61.58;50.67;;;23.90;63.60;;;;;;4963865;28;91040;-65
2022/09/14 10:55:30;;;;;;;61.83;50.83;;;23.90;63.70;;;;;;4972650;28;92301;-65
2022/09/14 10:58:26;;;;;;;61.20;51.15;;;23.90;63.70;;;;;;4943621;28;90862;-65
2022/09/14 11:01:31;;;;;;;60.58;50.72;;;23.80;63.70;;;;;;4966277;28;91296;-66
2022/09/14 11:04:32;;;;;;;64.60;51.10;;;23.90;63.70;;;;;;4962706;28;89517;-65
2022/09/14 11:07:03;;;;;;;;;;;23.80;64.40;;;;;;4968031;28;93655;-65
2022/09/14 11:09:36;;;;;;;61.60;50.60;;;23.80;63.70;;;;;;4975980;28;91179;-65
2022/09/14 11:12:17;;;;;;;61.63;50.85;;;23.80;63.80;;;;;;4965111;28;91603;-65
2022/09/14 11:14:59;;;;;;;62.88;51.00;;;23.80;63.70;;;;;;4967918;28;91428;-65
2022/09/14 11:17:30;;;;;;;60.58;51.00;;;23.80;63.70;;;;;;4964834;28;89978;-67
2022/09/14 11:20:02;;;;;;;60.88;50.72;;;23.80;63.60;;;;;;4974693;28;90140;-65
2022/09/14 11:22:48;;;;;;;61.65;51.03;;;23.90;63.70;;;;;;4978089;28;90071;-65
2022/09/14 11:25:20;;;;;;;62.42;51.00;;;23.80;63.70;;;;;;4969562;28;90461;-65
2022/09/14 11:27:54;;;;;;;61.72;51.05;;;23.80;63.70;;;;;;4969138;28;90417;-65
2022/09/14 11:30:22;;;;;;;61.22;51.15;;;23.80;63.70;;;;;;4965803;28;89279;-65
2022/09/14 11:33:10;;;;;;;63.05;51.15;;;23.80;63.70;;;;;;4965765;28;93313;-66
2022/09/14 11:35:47;;;;;;;61.60;51.03;;;23.80;63.70;;;;;;4970237;28;95767;-66
2022/09/14 11:38:24;;;;;;;61.88;50.85;;;23.80;63.80;;;;;;4979825;28;91127;-64
2022/09/14 11:41:08;;;;;;;62.92;51.33;;;23.80;63.80;;;;;;4974912;28;90093;-65
2022/09/14 11:43:41;;;;;;;61.17;51.13;;;23.80;63.70;;;;;;4976645;28;93352;-65
2022/09/14 11:46:11;;;;;;;61.13;50.70;;;23.80;63.80;;;;;;4968083;28;90810;-66
2022/09/14 11:48:55;;;;;;;61.33;51.00;;;23.70;63.80;;;;;;4976485;28;89788;-65
2022/09/14 11:51:35;;;;;;;62.63;50.92;;;23.70;63.80;;;;;;4965455;28;90707;-65
2022/09/14 11:54:01;;;;;;;61.47;51.10;;;23.70;63.70;;;;;;4969303;28;90169;-66
2022/09/14 11:56:30;;;;;;;64.95;51.60;;;23.70;63.80;;;;;;4971862;28;91556;-65
2022/09/14 11:58:58;;;;;;;62.33;51.25;;;23.70;64.40;;;;;;4967402;28;90798;-65
2022/09/14 12:01:35;;;;;;;61.70;51.10;;;23.70;63.90;;;;;;4963473;28;90681;-64
2022/09/14 12:04:08;;;;;;;64.55;51.67;;;23.70;64.00;;;;;;4966340;28;93712;-65
2022/09/14 12:06:36;;;;;;;62.08;51.25;;;23.80;64.00;;;;;;4972113;28;91573;-66
2022/09/14 12:09:19;;;;;;;61.40;51.53;;;23.70;63.90;;;;;;4971854;28;90008;-65
2022/09/14 12:11:49;;;;;;;62.35;51.75;;;23.70;64.00;;;;;;4965321;28;90125;-65
2022/09/14 12:14:25;;;;;;;62.30;51.47;;;23.70;63.90;;;;;;4971756;28;91199;-65
2022/09/14 12:17:17;;;;;;;61.92;51.67;;;23.70;64.00;;;;;;4969991;28;91746;-65
2022/09/14 12:19:45;;;;;;;61.72;51.85;;;23.70;64.00;;;;;;4970640;28;89905;-65
2022/09/14 12:22:37;;;;;;;61.80;51.63;;;23.70;64.10;;;;;;4965672;28;89311;-64
2022/09/14 12:25:08;;;;;;;63.33;51.60;;;23.70;64.00;;;;;;4960914;28;91489;-65
2022/09/14 12:27:36;;;;;;;62.60;51.92;;;23.70;64.00;;;;;;4969399;28;89944;-66
2022/09/14 12:30:32;;;;;;;64.10;51.92;;;23.70;64.00;;;;;;4966560;28;91628;-64
2022/09/14 12:32:58;;;;;;;62.28;51.97;;;23.70;64.00;;;;;;4970502;28;91548;-65
2022/09/14 12:35:39;;;;;;;63.30;51.83;;;23.70;64.00;;;;;;4982565;28;91391;-65
2022/09/14 12:39:00;;;;;;;62.55;51.72;;;23.70;63.90;;;;;;4969551;28;90674;-64
2022/09/14 12:41:26;;;;;;;61.97;51.70;;;23.70;63.90;;;;;;4940431;28;89874;-65
2022/09/14 12:43:55;;;;;;;62.60;52.17;;;23.70;63.90;;;;;;4971479;28;90016;-66
2022/09/14 12:46:21;;;;;;;64.90;52.10;;;23.70;64.00;;;;;;4966742;28;91656;-65
2022/09/14 12:51:28;;;;;;;61.95;52.22;;;23.70;63.90;;;;;;4974981;28;89793;-64
2022/09/14 12:54:26;;;;;;;62.88;52.28;;;23.70;63.80;;;;;;4969182;28;91390;-64
2022/09/14 12:56:52;;;;;;;62.50;51.88;;;23.70;63.70;;;;;;4970166;28;91247;-65